Time;durP1;ratioP1;P1;durP2;ratioP2;P2;SDS_P1;SDS_P2;PMS_P1;PMS_P2;Temp;Humidity;BMP_temperature;BMP_pressure;BME280_temperature;BME280_humidity;BME280_pressure;Samples;Min_cycle;Max_cycle;Signal;HPM_P1;HPM_P2
2021/12/20 00:01:11;;;;;;;6.72;4.32;;;0.70;99.90;;;;;;5054767;28;20036;-94
2021/12/20 00:03:37;;;;;;;9.88;4.32;;;0.80;99.90;;;;;;5054439;28;20017;-94
2021/12/20 00:06:03;;;;;;;7.75;4.35;;;0.70;99.90;;;;;;5054470;28;20476;-93
2021/12/20 00:08:28;;;;;;;6.70;4.10;;;0.60;99.90;;;;;;5054436;28;20121;-93
2021/12/20 00:10:55;;;;;;;7.75;4.78;;;0.70;99.90;;;;;;5054303;28;20031;-93
2021/12/20 00:13:22;;;;;;;7.70;4.80;;;0.70;99.90;;;;;;5054319;28;20029;-94
2021/12/20 00:15:47;;;;;;;10.00;4.45;;;0.70;99.90;;;;;;5054041;28;20098;-94
2021/12/20 00:18:13;;;;;;;8.13;4.38;;;0.70;99.90;;;;;;5054031;28;20029;-93
2021/12/20 00:20:39;;;;;;;9.38;5.18;;;0.70;99.90;;;;;;5054307;28;20021;-91
2021/12/20 00:23:04;;;;;;;7.20;4.50;;;0.70;99.90;;;;;;5054386;28;20037;-92
2021/12/20 00:25:31;;;;;;;6.45;4.25;;;0.70;99.90;;;;;;5053606;28;20079;-95
2021/12/20 00:27:57;;;;;;;9.85;4.82;;;0.70;99.90;;;;;;5054056;28;20083;-94
2021/12/20 00:30:22;;;;;;;6.68;4.60;;;0.70;99.90;;;;;;5054619;28;20460;-93
2021/12/20 00:32:48;;;;;;;11.57;5.57;;;0.70;99.90;;;;;;5053948;28;20075;-94
2021/12/20 00:35:17;;;;;;;8.63;5.38;;;0.70;99.90;;;;;;5054059;28;20021;-94
2021/12/20 00:40:28;;;;;;;7.82;4.72;;;0.70;99.90;;;;;;5055616;28;20040;-90
2021/12/20 00:42:59;;;;;;;6.40;4.18;;;0.70;99.90;;;;;;5053895;28;20135;-91
2021/12/20 00:45:27;;;;;;;6.50;4.30;;;0.70;99.90;;;;;;5053784;28;20639;-91
2021/12/20 00:47:53;;;;;;;8.40;5.00;;;0.80;99.90;;;;;;5053852;28;20463;-92
2021/12/20 00:50:21;;;;;;;10.45;4.70;;;0.80;99.90;;;;;;5053783;28;20111;-92
2021/12/20 00:52:48;;;;;;;7.43;4.45;;;0.70;99.90;;;;;;5053613;28;20025;-91
2021/12/20 00:55:18;;;;;;;8.80;5.15;;;0.70;99.90;;;;;;5053652;28;20468;-91
2021/12/20 00:57:48;;;;;;;7.90;4.65;;;0.70;99.90;;;;;;5053655;28;20037;-91
2021/12/20 01:00:18;;;;;;;10.18;3.88;;;0.60;99.90;;;;;;5054012;28;20464;-94
2021/12/20 01:02:44;;;;;;;5.25;4.20;;;0.60;99.90;;;;;;5053387;28;20025;-92
2021/12/20 01:05:11;;;;;;;5.05;3.50;;;0.50;99.90;;;;;;5053648;28;20029;-92
2021/12/20 01:07:37;;;;;;;6.93;4.20;;;0.50;99.90;;;;;;5053619;28;20024;-92
2021/12/20 01:13:28;;;;;;;7.55;4.22;;;0.50;99.90;;;;;;5054359;28;20032;-93
2021/12/20 01:15:57;;;;;;;7.03;4.20;;;0.40;99.90;;;;;;5053091;28;20133;-91
2021/12/20 01:18:23;;;;;;;5.68;4.00;;;0.30;99.90;;;;;;5053715;28;20269;-91
2021/12/20 01:20:50;;;;;;;10.05;4.63;;;0.30;99.90;;;;;;5053256;28;20021;-91
2021/12/20 01:23:17;;;;;;;9.73;4.57;;;0.30;99.90;;;;;;5053386;28;20028;-91
2021/12/20 01:25:43;;;;;;;8.07;4.22;;;0.30;99.90;;;;;;5053334;28;20067;-92
2021/12/20 01:28:10;;;;;;;5.68;3.47;;;0.20;99.90;;;;;;5053489;28;20025;-91
2021/12/20 01:30:37;;;;;;;6.88;3.53;;;0.30;99.90;;;;;;5053299;28;20039;-92
2021/12/20 01:33:07;;;;;;;6.25;3.42;;;0.20;99.90;;;;;;5053070;28;20036;-92
2021/12/20 01:35:33;;;;;;;3.80;3.38;;;0.30;99.90;;;;;;5053192;28;20029;-92
2021/12/20 01:37:59;;;;;;;8.27;3.88;;;0.20;99.90;;;;;;5054900;28;20395;-91
2021/12/20 01:40:25;;;;;;;6.60;4.10;;;0.30;99.90;;;;;;5057213;28;20510;-91
2021/12/20 01:42:55;;;;;;;8.35;3.78;;;0.30;99.90;;;;;;5056909;28;20476;-92
2021/12/20 01:45:23;;;;;;;6.25;3.53;;;0.30;99.90;;;;;;5057766;28;20024;-92
2021/12/20 01:47:54;;;;;;;5.65;3.50;;;0.30;99.90;;;;;;5056919;28;20075;-92
2021/12/20 01:52:48;;;;;;;8.15;4.40;;;0.20;99.90;;;;;;5058825;28;20486;-91
2021/12/20 01:55:18;;;;;;;4.25;2.90;;;0.20;99.90;;;;;;5056859;28;20025;-92
2021/12/20 01:57:44;;;;;;;5.50;3.13;;;0.30;99.90;;;;;;5056842;28;20112;-91
2021/12/20 02:00:16;;;;;;;7.53;3.90;;;0.20;99.90;;;;;;5056720;28;20028;-91
2021/12/20 02:02:43;;;;;;;7.47;5.10;;;0.20;99.90;;;;;;5052117;28;20032;-92
2021/12/20 02:05:20;;;;;;;8.35;4.78;;;0.10;99.90;;;;;;5056776;28;20063;-92
2021/12/20 02:10:15;;;;;;;8.57;4.72;;;0.10;99.90;;;;;;5057824;28;20024;-91
2021/12/20 02:12:41;;;;;;;7.72;4.55;;;0.00;99.90;;;;;;5056804;28;20025;-90
2021/12/20 02:15:07;;;;;;;5.63;3.83;;;0.10;99.90;;;;;;5056615;28;20526;-92
2021/12/20 02:17:33;;;;;;;4.03;3.42;;;0.10;99.90;;;;;;5055783;28;20056;-92
2021/12/20 02:20:00;;;;;;;8.63;3.65;;;0.10;99.90;;;;;;5056350;28;20025;-90
2021/12/20 02:22:25;;;;;;;6.70;3.60;;;0.10;99.90;;;;;;5056345;28;20460;-91
2021/12/20 02:24:51;;;;;;;4.93;2.88;;;0.20;99.90;;;;;;5056259;28;20040;-92
2021/12/20 02:27:19;;;;;;;4.50;3.10;;;0.20;99.90;;;;;;5056260;28;20068;-91
2021/12/20 02:30:00;;;;;;;6.53;3.40;;;0.20;99.90;;;;;;5056287;28;20032;-91
2021/12/20 02:37:57;;;;;;;4.63;2.70;;;0.30;99.90;;;;;;5057717;28;20052;-91
2021/12/20 02:40:23;;;;;;;4.80;3.00;;;0.30;99.90;;;;;;5056242;28;20029;-91
2021/12/20 02:42:51;;;;;;;5.80;2.70;;;0.40;99.90;;;;;;5056038;28;20392;-93
2021/12/20 02:45:17;;;;;;;2.67;2.47;;;0.40;99.90;;;;;;5056056;28;20025;-92
2021/12/20 02:47:48;;;;;;;4.95;3.10;;;0.40;99.90;;;;;;5055683;28;20063;-91
2021/12/20 02:50:15;;;;;;;3.72;3.20;;;0.50;99.90;;;;;;5055654;28;20021;-90
2021/12/20 02:52:41;;;;;;;3.85;3.00;;;0.50;99.90;;;;;;5055612;28;20125;-91
2021/12/20 02:55:08;;;;;;;5.78;3.10;;;0.50;99.90;;;;;;5055840;28;20025;-91
2021/12/20 03:00:55;;;;;;;5.65;3.80;;;0.50;99.90;;;;;;5057049;28;20075;-90
2021/12/20 03:03:21;;;;;;;4.40;3.50;;;0.50;99.90;;;;;;5055565;28;20033;-91
2021/12/20 03:05:47;;;;;;;5.93;4.38;;;0.40;99.90;;;;;;5073847;28;20032;-91
2021/12/20 03:08:13;;;;;;;9.23;4.43;;;0.40;99.90;;;;;;5075580;28;20028;-91
2021/12/20 03:10:42;;;;;;;6.53;4.55;;;0.40;99.90;;;;;;5075468;28;20020;-91
2021/12/20 03:13:07;;;;;;;6.88;4.95;;;0.30;99.90;;;;;;5075427;28;20395;-91
2021/12/20 03:15:33;;;;;;;6.00;4.65;;;0.20;99.90;;;;;;5075147;28;20028;-92
2021/12/20 03:17:59;;;;;;;8.60;5.15;;;0.20;99.90;;;;;;5058544;28;20024;-91
2021/12/20 03:20:24;;;;;;;9.75;5.07;;;0.20;99.90;;;;;;5058607;28;20040;-91
2021/12/20 03:22:50;;;;;;;7.78;5.03;;;0.20;99.90;;;;;;5058667;28;20039;-91
2021/12/20 03:25:16;;;;;;;10.07;5.72;;;0.20;99.90;;;;;;5048531;28;20017;-91
2021/12/20 03:27:42;;;;;;;8.75;5.75;;;0.20;99.90;;;;;;5038798;28;20029;-91
2021/12/20 03:30:13;;;;;;;8.45;5.65;;;0.10;99.90;;;;;;5038472;28;20091;-92
2021/12/20 03:32:39;;;;;;;10.07;6.55;;;0.20;99.90;;;;;;5038313;28;20395;-91
2021/12/20 03:35:06;;;;;;;9.93;6.60;;;0.20;99.90;;;;;;5038478;28;20031;-91
2021/12/20 03:37:32;;;;;;;12.48;6.70;;;0.30;99.90;;;;;;5038198;28;20036;-91
2021/12/20 03:39:58;;;;;;;10.35;6.35;;;0.30;99.90;;;;;;5038511;28;20456;-91
2021/12/20 03:42:26;;;;;;;12.25;6.70;;;0.30;99.90;;;;;;5038159;28;20024;-92
2021/12/20 03:44:52;;;;;;;10.45;6.78;;;0.30;99.90;;;;;;5038606;28;20032;-91
2021/12/20 03:47:18;;;;;;;11.40;6.95;;;0.40;99.90;;;;;;5038305;28;20029;-91
2021/12/20 03:49:43;;;;;;;14.50;7.35;;;0.40;99.90;;;;;;5038185;28;20120;-92
2021/12/20 03:52:10;;;;;;;12.02;6.65;;;0.40;99.90;;;;;;5038007;28;20115;-92
2021/12/20 03:54:36;;;;;;;11.43;6.47;;;0.40;99.90;;;;;;5037995;28;20064;-92
2021/12/20 03:57:02;;;;;;;16.40;7.13;;;0.40;99.90;;;;;;5038211;28;20033;-92
2021/12/20 03:59:29;;;;;;;16.73;7.32;;;0.40;99.90;;;;;;5037939;28;20032;-91
2021/12/20 04:01:56;;;;;;;12.88;6.70;;;0.40;99.90;;;;;;5037498;28;20028;-92
2021/12/20 04:04:22;;;;;;;14.38;7.15;;;0.40;99.90;;;;;;5038041;28;20029;-91
2021/12/20 04:06:48;;;;;;;14.57;7.00;;;0.40;99.90;;;;;;5037990;28;20021;-91
2021/12/20 04:09:14;;;;;;;11.98;6.50;;;0.50;99.90;;;;;;5037957;28;20116;-92
2021/12/20 04:11:39;;;;;;;12.07;6.50;;;0.40;99.90;;;;;;5052945;28;20064;-92
2021/12/20 04:14:06;;;;;;;13.32;6.15;;;0.50;99.90;;;;;;5057614;28;20071;-92
2021/12/20 04:16:32;;;;;;;12.48;6.20;;;0.50;99.90;;;;;;5063794;28;20120;-92
2021/12/20 04:18:58;;;;;;;9.30;5.63;;;0.50;99.90;;;;;;5074183;28;20027;-92
2021/12/20 04:21:24;;;;;;;11.07;5.40;;;0.40;99.90;;;;;;5074151;28;20047;-91
2021/12/20 04:23:50;;;;;;;12.73;6.22;;;0.40;99.90;;;;;;5074223;28;20078;-91
2021/12/20 04:26:16;;;;;;;11.63;5.60;;;0.50;99.90;;;;;;5074050;28;20093;-92
2021/12/20 04:28:42;;;;;;;14.18;6.50;;;0.50;99.90;;;;;;5074157;28;20043;-92
2021/12/20 04:31:08;;;;;;;9.50;5.13;;;0.50;99.90;;;;;;5074116;28;20029;-92
2021/12/20 04:33:33;;;;;;;8.43;4.80;;;0.50;99.90;;;;;;5073431;28;20111;-91
2021/12/20 04:35:59;;;;;;;8.88;5.00;;;0.50;99.90;;;;;;5053790;28;20171;-92
2021/12/20 04:38:27;;;;;;;11.18;4.88;;;0.50;99.90;;;;;;5062704;28;20471;-91
2021/12/20 04:40:53;;;;;;;10.18;5.68;;;0.40;99.90;;;;;;5073788;28;20025;-91
2021/12/20 04:43:19;;;;;;;6.93;3.95;;;0.40;99.90;;;;;;5073982;28;20036;-91
2021/12/20 04:45:45;;;;;;;6.25;3.63;;;0.40;99.90;;;;;;5073762;28;20046;-92
2021/12/20 04:48:11;;;;;;;9.32;4.43;;;0.40;99.90;;;;;;5073724;28;20379;-91
2021/12/20 04:50:37;;;;;;;6.80;3.47;;;0.50;99.90;;;;;;5073819;28;20501;-92
2021/12/20 04:53:02;;;;;;;5.68;3.47;;;0.40;99.90;;;;;;5074287;28;20038;-91
2021/12/20 04:55:29;;;;;;;9.85;4.50;;;0.50;99.90;;;;;;5073825;28;20029;-92
2021/12/20 04:57:56;;;;;;;6.45;3.83;;;0.50;99.90;;;;;;5073598;28;20052;-91
2021/12/20 05:00:24;;;;;;;8.10;3.78;;;0.50;99.90;;;;;;5073982;28;20427;-94
2021/12/20 05:02:50;;;;;;;7.43;4.72;;;0.50;99.90;;;;;;5073665;28;20020;-93
2021/12/20 05:05:16;;;;;;;6.18;4.47;;;0.50;99.90;;;;;;5074159;28;20082;-94
2021/12/20 05:07:44;;;;;;;6.95;4.10;;;0.50;99.90;;;;;;5074258;28;20028;-93
2021/12/20 05:10:24;;;;;;;7.15;4.45;;;0.50;99.90;;;;;;5074377;28;20024;-95
2021/12/20 05:12:50;;;;;;;9.80;4.10;;;0.50;99.90;;;;;;5077543;28;20078;-93
2021/12/20 05:15:17;;;;;;;7.60;4.72;;;0.50;99.90;;;;;;5076469;28;20475;-94
2021/12/20 05:17:43;;;;;;;8.40;4.30;;;0.60;99.90;;;;;;5073478;28;20131;-94
2021/12/20 05:20:09;;;;;;;6.18;3.65;;;0.50;99.90;;;;;;5077900;28;20544;-95
2021/12/20 05:22:40;;;;;;;5.45;3.63;;;0.50;99.90;;;;;;5079106;28;20027;-92
2021/12/20 05:25:06;;;;;;;6.95;3.38;;;0.50;99.90;;;;;;5076304;28;20032;-94
2021/12/20 05:27:31;;;;;;;5.60;3.88;;;0.50;99.90;;;;;;5076830;28;20111;-94
2021/12/20 05:29:59;;;;;;;4.97;2.90;;;0.60;99.90;;;;;;5077363;28;20536;-93
2021/12/20 05:32:25;;;;;;;4.88;3.40;;;0.60;99.90;;;;;;5075083;28;20035;-92
2021/12/20 05:34:50;;;;;;;5.47;3.10;;;0.60;99.90;;;;;;5075444;28;20032;-94
2021/12/20 05:37:16;;;;;;;7.45;3.13;;;0.60;99.90;;;;;;5075270;28;20031;-94
2021/12/20 05:39:43;;;;;;;5.57;2.72;;;0.60;99.90;;;;;;5076022;28;20475;-94
2021/12/20 05:42:08;;;;;;;5.63;3.00;;;0.60;99.90;;;;;;5076117;28;20082;-95
2021/12/20 05:44:37;;;;;;;15.95;3.15;;;0.60;99.90;;;;;;5075945;28;20115;-94
2021/12/20 05:47:03;;;;;;;4.72;3.10;;;0.60;99.90;;;;;;5075032;28;20047;-93
2021/12/20 05:49:31;;;;;;;9.63;3.60;;;0.60;99.90;;;;;;5074703;28;20021;-94
2021/12/20 05:52:03;;;;;;;6.22;3.40;;;0.60;99.90;;;;;;5076683;28;20389;-95
2021/12/20 05:54:29;;;;;;;5.85;2.70;;;0.60;99.90;;;;;;5078157;28;20028;-94
2021/12/20 05:56:55;;;;;;;3.30;2.80;;;0.60;99.90;;;;;;5077578;28;20497;-95
2021/12/20 05:59:20;;;;;;;4.88;2.60;;;0.60;99.90;;;;;;5076495;28;20111;-93
2021/12/20 06:01:46;;;;;;;3.65;2.65;;;0.70;99.90;;;;;;5074733;28;20023;-94
2021/12/20 06:04:12;;;;;;;6.28;2.70;;;0.60;99.90;;;;;;5076367;28;20037;-93
2021/12/20 06:06:37;;;;;;;5.50;3.00;;;0.70;99.90;;;;;;5074756;28;20084;-93
2021/12/20 06:09:03;;;;;;;7.35;3.03;;;0.70;99.90;;;;;;5076214;28;20025;-94
2021/12/20 06:11:29;;;;;;;7.03;3.75;;;0.70;99.90;;;;;;5077011;28;20047;-93
2021/12/20 06:13:54;;;;;;;6.25;3.10;;;0.70;99.90;;;;;;5074875;28;20024;-94
2021/12/20 06:16:20;;;;;;;4.63;2.83;;;0.70;99.90;;;;;;5075968;28;20481;-95
2021/12/20 06:18:46;;;;;;;6.00;3.45;;;0.70;99.90;;;;;;5075315;28;20016;-93
2021/12/20 06:21:11;;;;;;;3.15;2.65;;;0.70;99.90;;;;;;5074023;28;20094;-94
2021/12/20 06:23:37;;;;;;;3.70;2.90;;;0.70;99.90;;;;;;5076406;28;20055;-95
2021/12/20 06:26:03;;;;;;;5.07;3.40;;;0.70;99.90;;;;;;5082486;28;20055;-94
2021/12/20 06:28:30;;;;;;;5.72;3.50;;;0.70;99.90;;;;;;5078863;28;20028;-94
2021/12/20 06:30:56;;;;;;;4.78;3.05;;;0.70;99.90;;;;;;5080875;28;20025;-94
2021/12/20 06:33:22;;;;;;;3.80;2.78;;;0.70;99.90;;;;;;5080072;28;20036;-94
2021/12/20 06:35:47;;;;;;;7.18;3.50;;;0.70;99.90;;;;;;5080071;28;20035;-95
2021/12/20 06:38:19;;;;;;;4.90;3.08;;;0.80;99.90;;;;;;5081877;28;20029;-94
2021/12/20 06:40:45;;;;;;;7.18;3.63;;;0.70;99.90;;;;;;5079999;28;20029;-92
2021/12/20 06:43:14;;;;;;;11.80;3.80;;;0.70;99.90;;;;;;5077897;28;20194;-92
2021/12/20 06:45:47;;;;;;;5.25;3.72;;;0.70;99.90;;;;;;5081297;28;20025;-92
2021/12/20 07:14:09;;;;;;;5.65;3.33;;;0.80;99.90;;;;;;5010770;28;20051;-95
2021/12/20 07:16:35;;;;;;;6.32;3.22;;;0.80;99.90;;;;;;4994857;28;20050;-95
2021/12/20 07:19:04;;;;;;;3.75;2.50;;;0.90;99.90;;;;;;4996241;28;20018;-95
2021/12/20 07:21:29;;;;;;;10.20;5.00;;;1.00;99.90;;;;;;5006454;23;20075;-94
2021/12/20 07:23:56;;;;;;;20.63;11.00;;;1.00;99.90;;;;;;4945902;29;20024;-92
2021/12/20 07:26:23;;;;;;;14.68;8.27;;;1.00;99.90;;;;;;4954855;29;20038;-96
2021/12/20 07:31:23;;;;;;;11.23;5.60;;;1.00;99.90;;;;;;4956291;28;20027;-92
2021/12/20 07:36:24;;;;;;;5.13;3.20;;;1.00;99.90;;;;;;5151391;23;20059;-95
2021/12/20 07:38:51;;;;;;;6.60;3.38;;;1.00;99.90;;;;;;4973967;28;20027;-94
2021/12/20 07:41:22;;;;;;;8.18;3.20;;;1.10;99.90;;;;;;4958015;29;20027;-94
2021/12/20 07:43:49;;;;;;;6.78;4.03;;;1.20;99.90;;;;;;4958397;29;20023;-93
2021/12/20 07:46:19;;;;;;;9.98;4.40;;;1.20;99.90;;;;;;4960483;29;20004;-94
2021/12/20 07:48:45;;;;;;;8.52;3.15;;;1.00;99.90;;;;;;4957871;28;20023;-96
2021/12/20 07:51:11;;;;;;;8.05;4.13;;;1.00;99.90;;;;;;4954322;29;20160;-95
2021/12/20 07:53:46;;;;;;;9.70;5.22;;;1.00;99.90;;;;;;4944964;29;20109;-94
2021/12/20 07:56:13;;;;;;;10.32;4.57;;;1.00;99.90;;;;;;4942365;29;20043;-93
2021/12/20 07:58:38;;;;;;;7.25;3.20;;;1.10;99.90;;;;;;4956732;29;20086;-94
2021/12/20 08:01:04;;;;;;;6.82;4.32;;;1.10;99.90;;;;;;4957764;29;20030;-95
2021/12/20 08:06:16;;;;;;;6.30;3.53;;;1.10;99.90;;;;;;5119696;23;20513;-94
2021/12/20 08:08:42;;;;;;;10.07;5.60;;;1.20;99.90;;;;;;4952050;28;20027;-94
2021/12/20 08:11:08;;;;;;;5.15;3.85;;;1.20;99.90;;;;;;4932848;29;20371;-92
2021/12/20 08:13:34;;;;;;;7.70;5.45;;;1.20;99.90;;;;;;4944248;29;20088;-93
2021/12/20 08:16:00;;;;;;;4.78;2.95;;;1.30;99.90;;;;;;4946678;29;20054;-94
2021/12/20 08:18:25;;;;;;;6.68;3.40;;;1.30;99.90;;;;;;4945219;29;20062;-93
2021/12/20 08:20:51;;;;;;;7.70;3.30;;;1.30;99.90;;;;;;4947083;29;20104;-93
2021/12/20 08:23:17;;;;;;;5.95;4.05;;;1.30;99.90;;;;;;4950436;29;20030;-92
2021/12/20 08:25:43;;;;;;;7.30;3.95;;;1.40;99.90;;;;;;4948634;29;20023;-93
2021/12/20 08:28:10;;;;;;;6.82;4.25;;;1.40;99.90;;;;;;4945952;29;20047;-91
2021/12/20 08:30:36;;;;;;;14.68;7.95;;;1.50;99.90;;;;;;4947656;29;20023;-94
2021/12/20 08:33:03;;;;;;;7.13;4.40;;;1.50;99.90;;;;;;4944751;29;20058;-91
2021/12/20 08:35:29;;;;;;;11.13;6.95;;;1.40;99.90;;;;;;4942584;29;20078;-92
2021/12/20 08:37:54;;;;;;;6.15;3.90;;;1.40;99.90;;;;;;4942997;29;20474;-91
2021/12/20 08:40:21;;;;;;;9.00;5.60;;;1.50;99.90;;;;;;4945151;29;20027;-92
2021/12/20 08:42:47;;;;;;;6.00;3.47;;;1.50;99.90;;;;;;4943696;29;20019;-93
2021/12/20 08:45:14;;;;;;;5.00;3.67;;;1.50;99.90;;;;;;4946604;29;20028;-94
2021/12/20 08:47:41;;;;;;;5.40;3.67;;;1.50;99.90;;;;;;4946259;29;20023;-92
2021/12/20 08:50:11;;;;;;;4.38;3.45;;;1.40;99.90;;;;;;4944982;29;20074;-93
2021/12/20 08:52:37;;;;;;;3.97;2.85;;;1.40;99.90;;;;;;4943253;29;20082;-92
2021/12/20 08:55:04;;;;;;;4.47;2.92;;;1.40;99.90;;;;;;4941297;29;20035;-92
2021/12/20 08:57:30;;;;;;;5.40;4.00;;;1.40;99.90;;;;;;4942087;29;20118;-91
2021/12/20 08:59:55;;;;;;;7.57;4.15;;;1.40;99.90;;;;;;4940781;29;20063;-91
2021/12/20 09:02:21;;;;;;;6.53;4.30;;;1.40;99.90;;;;;;4943654;29;20031;-92
2021/12/20 09:04:47;;;;;;;7.00;3.92;;;1.40;99.90;;;;;;4942183;29;20031;-93
2021/12/20 09:07:16;;;;;;;5.82;3.53;;;1.40;99.90;;;;;;4943416;29;20031;-93
2021/12/20 09:09:45;;;;;;;4.68;3.40;;;1.40;99.90;;;;;;4942536;29;20031;-92
2021/12/20 09:12:11;;;;;;;5.25;3.35;;;1.50;99.90;;;;;;4943762;29;20031;-93
2021/12/20 09:14:37;;;;;;;7.53;3.25;;;1.60;99.90;;;;;;4944432;29;20028;-91
2021/12/20 09:17:04;;;;;;;6.43;3.90;;;1.60;99.90;;;;;;4944775;29;20035;-93
2021/12/20 09:19:30;;;;;;;7.55;4.40;;;1.70;99.90;;;;;;4943095;29;20127;-92
2021/12/20 09:21:56;;;;;;;6.72;3.90;;;1.80;99.90;;;;;;4945958;29;20050;-90
2021/12/20 09:24:22;;;;;;;5.85;3.35;;;1.70;99.90;;;;;;4945844;29;20055;-93
2021/12/20 09:26:48;;;;;;;6.40;4.35;;;1.70;99.90;;;;;;4945063;29;20039;-94
2021/12/20 09:29:14;;;;;;;6.50;3.90;;;1.80;99.90;;;;;;4943765;29;20031;-94
2021/12/20 09:31:40;;;;;;;7.68;4.07;;;1.90;99.90;;;;;;4943651;29;20119;-91
2021/12/20 09:34:06;;;;;;;11.15;5.80;;;1.80;99.90;;;;;;4943304;29;20100;-93
2021/12/20 09:36:33;;;;;;;5.35;4.25;;;1.80;99.90;;;;;;4942782;29;20035;-94
2021/12/20 09:39:00;;;;;;;7.18;5.30;;;1.80;99.90;;;;;;4942382;29;20019;-94
2021/12/20 09:44:09;;;;;;;5.30;3.33;;;1.70;99.90;;;;;;4964132;29;20106;-93
2021/12/20 09:46:35;;;;;;;7.40;4.57;;;1.70;99.90;;;;;;4944913;29;20027;-93
2021/12/20 09:49:02;;;;;;;15.88;3.78;;;1.80;99.90;;;;;;4946539;29;20042;-93
2021/12/20 09:51:28;;;;;;;6.60;3.92;;;1.80;99.90;;;;;;4934145;29;20031;-93
2021/12/20 09:53:55;;;;;;;10.98;8.00;;;1.70;99.90;;;;;;4944951;29;20051;-93
2021/12/20 09:56:25;;;;;;;7.30;4.35;;;1.70;99.90;;;;;;4944000;29;20099;-93
2021/12/20 09:58:54;;;;;;;8.02;3.70;;;1.70;99.90;;;;;;4944967;29;20087;-93
2021/12/20 10:01:22;;;;;;;7.05;4.57;;;1.70;99.90;;;;;;4950311;29;20035;-94
2021/12/20 10:03:47;;;;;;;5.35;3.95;;;1.70;99.90;;;;;;4947267;29;20055;-93
2021/12/20 10:06:14;;;;;;;7.93;4.30;;;1.60;99.90;;;;;;4945849;29;20482;-93
2021/12/20 10:08:49;;;;;;;9.23;4.95;;;1.60;99.90;;;;;;4946991;29;20031;-92
2021/12/20 10:11:28;;;;;;;7.55;5.00;;;1.60;99.90;;;;;;4945805;29;20027;-93
2021/12/20 10:14:09;;;;;;;19.58;8.90;;;1.70;99.90;;;;;;4945009;29;20449;-93
2021/12/20 10:16:36;;;;;;;12.00;6.32;;;1.90;99.90;;;;;;4948502;29;20550;-92
2021/12/20 10:19:04;;;;;;;8.63;5.10;;;1.90;99.90;;;;;;4946075;29;20471;-94
2021/12/20 10:21:39;;;;;;;10.15;5.50;;;1.80;99.90;;;;;;4967197;29;20033;-93
2021/12/20 10:24:06;;;;;;;9.98;5.78;;;1.80;99.90;;;;;;4948520;29;20569;-93
2021/12/20 10:26:40;;;;;;;8.23;4.78;;;1.80;99.90;;;;;;4948426;29;20058;-94
2021/12/20 10:29:20;;;;;;;10.05;4.82;;;1.80;99.90;;;;;;4946365;29;20078;-93
2021/12/20 10:31:47;;;;;;;6.65;4.28;;;1.80;99.90;;;;;;4948766;29;20061;-94
2021/12/20 10:34:14;;;;;;;6.13;3.97;;;1.80;99.90;;;;;;4935290;29;20028;-93
2021/12/20 10:37:09;;;;;;;9.68;5.65;;;1.70;99.90;;;;;;4952365;29;20375;-94
2021/12/20 10:39:41;;;;;;;5.20;3.63;;;1.70;99.90;;;;;;4932843;29;20035;-94
2021/12/20 10:42:26;;;;;;;8.77;4.97;;;1.60;99.90;;;;;;4948741;29;20115;-94
2021/12/20 10:45:13;;;;;;;13.77;5.50;;;1.70;99.90;;;;;;4952472;29;20062;-94
2021/12/20 10:47:40;;;;;;;10.70;5.35;;;1.80;99.90;;;;;;4951400;29;20028;-94
2021/12/20 10:50:45;;;;;;;12.07;6.13;;;1.80;99.90;;;;;;4946990;29;20034;-93
2021/12/20 10:53:21;;;;;;;9.80;5.80;;;1.90;99.90;;;;;;4899067;29;20047;-95
2021/12/20 10:55:54;;;;;;;8.77;5.18;;;2.00;99.90;;;;;;4946526;29;20039;-93
2021/12/20 10:58:28;;;;;;;8.63;5.22;;;2.00;99.90;;;;;;4946101;29;20027;-94
2021/12/20 11:01:16;;;;;;;6.22;4.22;;;2.00;99.90;;;;;;4948719;29;20045;-93
2021/12/20 11:03:44;;;;;;;6.47;4.50;;;2.00;99.90;;;;;;4946537;29;20533;-93
2021/12/20 14:43:33;;;;;;;24.73;14.88;;;0.60;99.90;;;;;;5091069;28;20390;-91
2021/12/20 14:46:32;;;;;;;23.33;14.77;;;0.70;99.90;;;;;;5080733;28;20068;-90
2021/12/20 14:49:19;;;;;;;17.70;11.18;;;0.60;99.90;;;;;;5059752;28;20510;-90
2021/12/20 14:51:47;;;;;;;24.98;15.10;;;0.60;99.90;;;;;;5070730;28;20020;-91
2021/12/20 14:54:22;;;;;;;22.17;15.15;;;0.60;99.90;;;;;;5070738;28;20025;-90
2021/12/20 14:56:57;;;;;;;13.27;8.75;;;0.60;99.90;;;;;;5070798;28;20115;-91
2021/12/20 14:59:29;;;;;;;15.38;9.32;;;0.60;99.90;;;;;;5070977;28;20039;-91
2021/12/20 15:01:57;;;;;;;19.25;12.43;;;0.70;99.90;;;;;;5072469;28;20039;-91
2021/12/20 15:04:22;;;;;;;15.93;11.43;;;0.70;99.90;;;;;;5071248;28;20020;-89
2021/12/20 15:06:53;;;;;;;17.35;11.73;;;0.80;99.90;;;;;;5071372;28;20031;-90
2021/12/20 15:09:24;;;;;;;27.17;15.05;;;0.80;99.90;;;;;;5072322;28;20025;-91
2021/12/20 15:11:49;;;;;;;24.63;14.65;;;0.90;99.90;;;;;;5070816;28;20033;-89
2021/12/20 15:14:16;;;;;;;25.90;14.35;;;0.90;99.90;;;;;;5070537;28;20086;-90
2021/12/20 15:16:41;;;;;;;25.90;16.17;;;1.00;99.90;;;;;;5070488;28;20056;-92
2021/12/20 15:19:07;;;;;;;34.22;20.00;;;1.00;99.90;;;;;;5088642;28;20051;-93
2021/12/20 15:21:35;;;;;;;29.02;19.23;;;1.00;99.90;;;;;;5111040;28;20394;-92
2021/12/20 15:24:02;;;;;;;24.02;16.02;;;1.10;99.90;;;;;;5105952;28;20447;-92
2021/12/20 15:26:27;;;;;;;22.65;14.55;;;1.00;99.90;;;;;;5090678;28;20052;-93
2021/12/20 15:28:58;;;;;;;50.30;27.70;;;0.90;99.90;;;;;;5090717;28;20027;-92
2021/12/20 15:31:24;;;;;;;32.33;16.48;;;0.90;99.90;;;;;;5091233;28;20551;-92
2021/12/20 15:33:49;;;;;;;43.47;23.00;;;1.00;99.90;;;;;;5092110;28;20131;-92
2021/12/20 15:36:15;;;;;;;46.95;26.52;;;1.00;99.90;;;;;;5090882;28;20024;-93
2021/12/20 15:38:41;;;;;;;52.92;26.13;;;1.00;99.90;;;;;;5090893;28;20024;-92
2021/12/20 15:41:06;;;;;;;41.13;22.15;;;1.00;99.90;;;;;;5090745;28;20484;-91
2021/12/20 15:43:32;;;;;;;42.05;24.33;;;1.00;99.90;;;;;;5073490;28;20432;-93
2021/12/20 15:45:58;;;;;;;33.42;19.42;;;1.10;99.90;;;;;;5071173;28;20016;-94
2021/12/20 15:48:24;;;;;;;29.73;18.77;;;1.10;99.90;;;;;;5054538;28;20047;-92
2021/12/20 15:50:51;;;;;;;46.08;30.45;;;1.10;99.90;;;;;;5053744;28;20072;-92
2021/12/20 15:53:17;;;;;;;23.55;16.83;;;1.10;99.90;;;;;;5049169;28;20033;-93
2021/12/20 15:55:44;;;;;;;29.13;19.73;;;1.20;99.90;;;;;;5040452;28;20036;-91
2021/12/20 15:58:10;;;;;;;35.05;22.95;;;1.20;99.90;;;;;;5040564;28;20475;-93
2021/12/20 16:00:36;;;;;;;29.52;19.25;;;1.20;99.90;;;;;;5041014;28;20029;-92
2021/12/20 16:03:03;;;;;;;27.42;16.60;;;1.00;99.90;;;;;;5046028;28;20033;-93
2021/12/20 16:05:29;;;;;;;23.75;13.80;;;0.80;99.90;;;;;;5048037;28;20017;-94
2021/12/20 16:07:55;;;;;;;20.65;12.98;;;0.70;99.90;;;;;;5045484;28;20060;-93
2021/12/20 16:10:21;;;;;;;17.48;11.23;;;0.60;99.90;;;;;;5043274;28;20088;-94
2021/12/20 16:12:46;;;;;;;16.75;11.23;;;0.60;99.90;;;;;;5043379;28;20059;-93
2021/12/20 16:15:20;;;;;;;22.65;13.13;;;0.50;99.90;;;;;;5040971;28;20029;-92
2021/12/20 16:17:48;;;;;;;24.52;15.20;;;0.50;99.90;;;;;;5041782;28;20021;-93
2021/12/20 16:20:15;;;;;;;28.70;18.02;;;0.40;99.90;;;;;;5042370;28;20535;-92
2021/12/20 16:22:41;;;;;;;26.58;18.55;;;0.40;99.90;;;;;;5044976;28;20490;-92
2021/12/20 16:25:07;;;;;;;19.88;13.35;;;0.30;99.90;;;;;;5043391;28;20028;-95
2021/12/20 16:27:32;;;;;;;12.82;8.27;;;0.40;99.90;;;;;;5043742;28;20021;-92
2021/12/20 16:30:02;;;;;;;27.13;16.35;;;0.30;99.90;;;;;;5045083;28;20036;-94
2021/12/20 16:32:30;;;;;;;15.82;11.05;;;0.20;99.90;;;;;;5043415;28;20029;-93
2021/12/20 16:34:57;;;;;;;16.73;10.73;;;0.30;99.90;;;;;;5041199;28;20052;-92
2021/12/20 16:37:23;;;;;;;12.45;7.68;;;0.30;99.90;;;;;;5041859;28;20103;-92
2021/12/20 16:39:58;;;;;;;15.88;9.90;;;0.30;99.90;;;;;;5042697;28;20463;-91
2021/12/20 16:42:23;;;;;;;17.38;11.75;;;0.20;99.90;;;;;;5048887;28;20053;-92
2021/12/20 16:44:52;;;;;;;14.50;10.88;;;0.30;99.90;;;;;;5059415;28;20543;-92
2021/12/20 16:47:24;;;;;;;12.98;8.90;;;0.30;99.90;;;;;;5058254;28;20021;-92
2021/12/20 16:49:52;;;;;;;22.33;13.70;;;0.40;99.90;;;;;;5057119;28;20028;-92
2021/12/20 16:52:18;;;;;;;17.23;12.23;;;0.40;99.90;;;;;;5058503;28;20124;-92
2021/12/20 16:54:46;;;;;;;25.88;16.55;;;0.40;99.90;;;;;;5058067;28;20021;-93
2021/12/20 16:57:13;;;;;;;35.90;22.17;;;0.40;99.90;;;;;;5058698;28;20021;-93
2021/12/20 16:59:39;;;;;;;19.17;10.98;;;0.40;99.90;;;;;;5061371;28;20021;-93
2021/12/20 17:02:17;;;;;;;23.60;12.48;;;0.40;99.90;;;;;;5059917;28;20024;-92
2021/12/20 17:04:44;;;;;;;26.90;13.93;;;0.40;99.90;;;;;;5058938;28;20401;-92
2021/12/20 17:07:09;;;;;;;19.58;12.68;;;0.50;99.90;;;;;;5060778;28;20475;-93
2021/12/20 17:09:36;;;;;;;30.35;12.23;;;0.60;99.90;;;;;;5059430;28;20021;-92
2021/12/20 17:12:03;;;;;;;19.83;13.68;;;0.70;99.90;;;;;;5059819;28;20206;-93
2021/12/20 17:14:28;;;;;;;43.58;22.05;;;0.70;99.90;;;;;;5056698;28;20064;-93
2021/12/20 17:16:54;;;;;;;39.42;20.80;;;0.70;99.90;;;;;;5056749;28;20039;-92
2021/12/20 17:19:20;;;;;;;32.47;19.33;;;0.70;99.90;;;;;;5059245;28;20049;-91
2021/12/20 17:21:46;;;;;;;44.15;21.23;;;0.70;99.90;;;;;;5055928;28;20025;-92
2021/12/20 17:24:12;;;;;;;56.15;26.33;;;0.50;99.90;;;;;;5055753;28;20033;-92
2021/12/20 17:26:37;;;;;;;50.80;25.13;;;0.60;99.90;;;;;;5056127;28;20021;-91